Addison, Texas
Current Conditions -  °F | °C
As of 6:47 AM on Thursday 23 Oct 2014 (Local Time) from KADS Reporting Station
Overcast Overcast  
Wind Chill: 18°   Ceiling: 8000
Heat Index: 18°   Visibility: 10mi
Dew Point: 11°   Wind: 3mph
Humidity: 64%   Direction: 120°ESE
Pressure: 30.14"   Gusts: NA
Location:  32.95°N, 96.82°W
Report Text: KADS 231147Z 12003KT 10SM OVC080 18/11 A3014
Loading
Personal Weather Stations






























Interactive Weather Map
Tropical Storm Tracking
New forecast layout! Learn more

10-Day Weather Forecast

Advertisements
Track Severe Weather on mobile